createdAt,value
2023-05-14T00:00:22.990Z,100.00
2023-05-14T00:02:52.318Z,100.00
2023-05-14T00:05:21.497Z,100.00
2023-05-14T00:07:51.923Z,100.00
2023-05-14T00:10:21.976Z,100.00
2023-05-14T00:12:52.829Z,100.00
2023-05-14T00:15:22.182Z,100.00
2023-05-14T00:17:51.296Z,100.00
2023-05-14T00:20:20.686Z,100.00
2023-05-14T00:22:51.100Z,100.00
2023-05-14T00:25:20.155Z,100.00
2023-05-14T00:27:49.378Z,100.00
2023-05-14T00:30:18.483Z,100.00
2023-05-14T00:32:47.602Z,100.00
2023-05-14T00:35:16.734Z,100.00
2023-05-14T00:37:45.857Z,100.00
2023-05-14T00:40:16.743Z,100.00
2023-05-14T00:42:45.821Z,100.00
2023-05-14T00:45:14.900Z,100.00
2023-05-14T00:47:44.485Z,100.00
2023-05-14T00:50:14.998Z,100.00
2023-05-14T00:52:44.519Z,100.00
2023-05-14T00:55:17.557Z,100.00
2023-05-14T00:57:46.758Z,100.00
2023-05-14T01:00:16.590Z,100.00
2023-05-14T01:02:45.776Z,100.00
2023-05-14T01:05:15.090Z,100.00
2023-05-14T01:07:58.640Z,100.00
2023-05-14T01:10:33.662Z,100.00
2023-05-14T01:13:11.541Z,100.00
2023-05-14T01:15:43.073Z,100.00
2023-05-14T01:18:14.533Z,100.00
2023-05-14T01:20:44.501Z,100.00
2023-05-14T01:23:15.444Z,100.00
2023-05-14T01:25:44.555Z,100.00
2023-05-14T01:28:18.442Z,100.00
2023-05-14T01:30:54.282Z,100.00
2023-05-14T01:33:25.457Z,100.00
2023-05-14T01:35:56.776Z,100.00
2023-05-14T01:38:30.700Z,100.00
2023-05-14T01:41:00.781Z,100.00
2023-05-14T01:43:31.285Z,100.00
2023-05-14T01:46:00.688Z,100.00
2023-05-14T01:48:30.635Z,100.00
2023-05-14T01:50:59.708Z,100.00
2023-05-14T01:53:30.262Z,100.00
2023-05-14T01:55:59.304Z,100.00
2023-05-14T01:58:28.344Z,100.00
2023-05-14T02:00:57.514Z,100.00
2023-05-14T02:03:26.627Z,100.00
2023-05-14T02:05:55.888Z,100.00
2023-05-14T02:08:25.261Z,100.00
2023-05-14T02:10:55.687Z,100.00
2023-05-14T02:13:27.052Z,100.00
2023-05-14T02:15:56.170Z,100.00
2023-05-14T02:18:25.341Z,100.00
2023-05-14T02:20:54.498Z,100.00
2023-05-14T02:23:34.040Z,100.00
2023-05-14T02:26:09.557Z,100.00
2023-05-14T02:28:38.654Z,100.00
2023-05-14T02:31:07.853Z,100.00
2023-05-14T02:33:37.038Z,100.00
2023-05-14T02:36:06.783Z,100.00
2023-05-14T02:38:35.906Z,100.00
2023-05-14T02:41:05.024Z,100.00
2023-05-14T02:43:35.740Z,100.00
2023-05-14T02:46:04.887Z,100.00
2023-05-14T02:48:34.052Z,100.00
2023-05-14T02:51:03.162Z,100.00
2023-05-14T02:53:32.256Z,100.00
2023-05-14T02:56:01.283Z,100.00
2023-05-14T02:58:30.444Z,100.00
2023-05-14T03:01:00.944Z,100.00
2023-05-14T03:03:31.154Z,100.00
2023-05-14T03:06:00.739Z,100.00
2023-05-14T03:08:29.826Z,100.00
2023-05-14T03:10:58.884Z,100.00
2023-05-14T03:13:28.016Z,100.00
2023-05-14T03:15:57.299Z,100.00
2023-05-14T03:18:30.613Z,100.00
2023-05-14T03:20:59.818Z,100.00
2023-05-14T03:23:31.881Z,100.00
2023-05-14T03:26:00.995Z,100.00
2023-05-14T03:28:30.006Z,100.00
2023-05-14T03:30:59.262Z,100.00
2023-05-14T03:33:30.005Z,100.00
2023-05-14T03:35:59.141Z,100.00
2023-05-14T03:38:28.286Z,100.00
2023-05-14T03:40:59.098Z,100.00
2023-05-14T03:43:28.580Z,100.00
2023-05-14T03:45:57.617Z,100.00
2023-05-14T03:48:26.833Z,100.00
2023-05-14T03:50:57.329Z,100.00
2023-05-14T03:53:26.420Z,100.00
2023-05-14T03:55:55.644Z,100.00
2023-05-14T03:58:24.709Z,100.00
2023-05-14T04:00:53.817Z,100.00
2023-05-14T04:03:22.993Z,100.00
2023-05-14T04:05:52.795Z,100.00
2023-05-14T04:08:23.762Z,100.00
2023-05-14T04:10:52.849Z,100.00
2023-05-14T04:13:21.911Z,100.00
2023-05-14T04:15:51.030Z,100.00
2023-05-14T04:18:20.227Z,100.00
2023-05-14T04:20:49.327Z,100.00
2023-05-14T04:23:18.384Z,100.00
2023-05-14T04:25:48.800Z,100.00
2023-05-14T04:28:17.814Z,100.00
2023-05-14T04:30:46.879Z,100.00
2023-05-14T04:33:15.958Z,100.00
2023-05-14T04:35:46.256Z,100.00
2023-05-14T04:38:15.554Z,100.00
2023-05-14T04:40:44.681Z,100.00
2023-05-14T04:43:15.169Z,100.00
2023-05-14T04:45:44.472Z,100.00
2023-05-14T04:48:13.666Z,100.00
2023-05-14T04:50:44.201Z,100.00
2023-05-14T04:53:13.304Z,100.00
2023-05-14T04:55:42.565Z,100.00
2023-05-14T04:58:11.670Z,100.00
2023-05-14T05:00:42.097Z,100.00
2023-05-14T05:03:11.252Z,100.00
2023-05-14T05:05:40.376Z,100.00
2023-05-14T05:08:11.282Z,100.00
2023-05-14T05:10:40.388Z,100.00
2023-05-14T05:13:09.544Z,100.00
2023-05-14T05:15:38.639Z,100.00
2023-05-14T05:18:09.323Z,100.00
2023-05-14T05:20:38.436Z,100.00
2023-05-14T05:23:07.477Z,100.00
2023-05-14T05:25:36.537Z,100.00
2023-05-14T05:28:05.808Z,100.00
2023-05-14T05:30:34.964Z,100.00
2023-05-14T05:33:04.636Z,100.00
2023-05-14T05:35:35.110Z,100.00
2023-05-14T05:38:04.160Z,100.00
2023-05-14T05:40:33.342Z,100.00
2023-05-14T05:43:02.378Z,100.00
2023-05-14T05:45:31.547Z,100.00
2023-05-14T05:48:00.696Z,100.00
2023-05-14T05:50:29.808Z,100.00
2023-05-14T05:53:00.291Z,100.00
2023-05-14T05:55:30.939Z,100.00
2023-05-14T05:58:00.035Z,100.00
2023-05-14T06:00:29.152Z,100.00
2023-05-14T06:02:58.364Z,100.00
2023-05-14T06:05:27.651Z,100.00
2023-05-14T06:07:57.020Z,100.00
2023-05-14T06:10:27.434Z,100.00
2023-05-14T06:12:56.644Z,100.00
2023-05-14T06:15:25.784Z,100.00
2023-05-14T06:17:54.911Z,100.00
2023-05-14T06:20:24.212Z,100.00
2023-05-14T06:22:53.535Z,100.00
2023-05-14T06:25:22.887Z,100.00
2023-05-14T06:27:53.376Z,100.00
2023-05-14T06:30:22.822Z,100.00
2023-05-14T06:32:52.853Z,100.00
2023-05-14T06:35:22.215Z,100.00
2023-05-14T06:37:51.490Z,100.00
2023-05-14T06:40:21.466Z,100.00
2023-05-14T06:42:51.962Z,100.00
2023-05-14T06:45:21.559Z,100.00
2023-05-14T06:47:50.738Z,100.00
2023-05-14T06:50:20.052Z,100.00
2023-05-14T06:52:49.079Z,100.00
2023-05-14T06:55:18.229Z,100.00
2023-05-14T06:57:47.317Z,100.00
2023-05-14T07:00:19.290Z,100.00
2023-05-14T07:02:48.402Z,100.00
2023-05-14T07:05:17.683Z,100.00
2023-05-14T07:07:46.786Z,100.00
2023-05-14T07:10:15.845Z,100.00
2023-05-14T07:12:45.248Z,100.00
2023-05-14T07:15:14.479Z,100.00
2023-05-14T07:17:52.978Z,100.00
2023-05-14T07:20:23.856Z,100.00
2023-05-14T07:22:53.788Z,100.00
2023-05-14T07:25:23.465Z,100.00
2023-05-14T07:27:52.587Z,100.00
2023-05-14T07:30:22.241Z,100.00
2023-05-14T07:32:54.487Z,98.60
2023-05-14T07:35:23.826Z,97.20
2023-05-14T07:37:55.579Z,100.00
2023-05-14T07:40:25.895Z,100.00
2023-05-14T07:42:55.161Z,97.45
2023-05-14T07:45:24.456Z,96.77
2023-05-14T07:47:55.178Z,94.27
2023-05-14T07:50:25.148Z,91.15
2023-05-14T07:52:54.522Z,93.11
2023-05-14T07:55:23.719Z,96.29
2023-05-14T07:57:52.788Z,92.33
2023-05-14T08:00:22.171Z,92.77
2023-05-14T08:02:51.731Z,88.42
2023-05-14T08:05:22.391Z,97.07
2023-05-14T08:07:51.614Z,93.85
2023-05-14T08:10:20.784Z,91.74
2023-05-14T08:12:49.904Z,91.52
2023-05-14T08:15:19.058Z,89.03
2023-05-14T08:17:48.148Z,93.39
2023-05-14T08:20:17.584Z,88.21
2023-05-14T08:22:48.070Z,90.89
2023-05-14T08:25:17.215Z,87.46
2023-05-14T08:27:46.387Z,84.28
2023-05-14T08:30:16.375Z,75.52
2023-05-14T08:32:45.634Z,76.45
2023-05-14T08:35:14.967Z,85.71
2023-05-14T08:37:44.067Z,77.68
2023-05-14T08:40:15.083Z,80.13
2023-05-14T08:42:45.059Z,80.76
2023-05-14T08:45:20.086Z,79.34
2023-05-14T08:47:51.095Z,77.00
2023-05-14T08:50:23.007Z,76.55
2023-05-14T08:52:53.931Z,77.72
2023-05-14T08:55:26.025Z,78.33
2023-05-14T08:57:55.852Z,70.99
2023-05-14T09:00:26.399Z,73.96
2023-05-14T09:02:56.310Z,73.36
2023-05-14T09:05:25.669Z,69.81
2023-05-14T09:07:54.954Z,67.70
2023-05-14T09:10:26.214Z,64.58
2023-05-14T09:12:55.594Z,65.12
2023-05-14T09:15:28.597Z,61.39
2023-05-14T09:17:58.805Z,60.43
2023-05-14T09:20:28.678Z,59.94
2023-05-14T09:22:59.875Z,71.16
2023-05-14T09:25:33.278Z,64.42
2023-05-14T09:28:08.100Z,58.45
2023-05-14T09:30:37.616Z,59.18
2023-05-14T09:33:10.199Z,63.83
2023-05-14T09:35:43.218Z,59.18
2023-05-14T09:38:13.040Z,55.60
2023-05-14T09:40:43.824Z,47.56
2023-05-14T09:43:13.911Z,54.39
2023-05-14T09:45:43.475Z,56.93
2023-05-14T09:48:13.067Z,55.91
2023-05-14T09:50:44.157Z,48.81
2023-05-14T09:53:13.360Z,52.21
2023-05-14T09:55:43.939Z,51.23
2023-05-14T09:58:14.515Z,55.39
2023-05-14T10:00:47.658Z,51.55
2023-05-14T10:03:20.079Z,53.33
2023-05-14T10:05:52.140Z,53.17
2023-05-14T10:08:26.635Z,60.08
2023-05-14T10:10:59.526Z,50.78
2023-05-14T10:13:33.299Z,46.29
2023-05-14T10:16:09.187Z,52.00
2023-05-14T10:18:45.866Z,45.41
2023-05-14T10:21:16.759Z,48.47
2023-05-14T10:23:47.070Z,47.91
2023-05-14T10:26:17.961Z,51.34
2023-05-14T10:28:47.664Z,57.82
2023-05-14T10:31:17.273Z,52.23
2023-05-14T10:33:50.445Z,56.63
2023-05-14T10:36:19.802Z,63.38
2023-05-14T10:38:56.083Z,51.78
2023-05-14T10:41:26.566Z,51.26
2023-05-14T10:43:58.416Z,48.36
2023-05-14T10:46:27.607Z,48.60
2023-05-14T10:48:57.695Z,44.65
2023-05-14T10:51:27.052Z,41.56
2023-05-14T10:53:57.489Z,37.21
2023-05-14T10:56:28.077Z,38.42
2023-05-14T10:59:00.966Z,41.24
2023-05-14T11:01:30.436Z,49.94
2023-05-14T11:04:00.290Z,48.39
2023-05-14T11:06:31.632Z,44.29
2023-05-14T11:09:03.955Z,44.50
2023-05-14T11:11:34.492Z,45.10
2023-05-14T11:14:03.673Z,42.73
2023-05-14T11:16:33.233Z,45.19
2023-05-14T11:19:07.121Z,46.44
2023-05-14T11:21:36.199Z,43.81
2023-05-14T11:24:07.331Z,51.67
2023-05-14T11:26:38.139Z,66.69
2023-05-14T11:29:07.290Z,58.07
2023-05-14T11:31:37.456Z,51.49
2023-05-14T11:34:09.935Z,61.21
2023-05-14T11:36:39.053Z,49.45
2023-05-14T11:39:08.652Z,52.92
2023-05-14T11:41:44.658Z,47.98
2023-05-14T11:44:14.070Z,44.90
2023-05-14T11:46:54.354Z,55.90
2023-05-14T11:49:24.274Z,51.87
2023-05-14T11:51:58.829Z,49.54
2023-05-14T11:54:28.629Z,61.48
2023-05-14T11:57:00.853Z,52.56
2023-05-14T11:59:32.493Z,58.88
2023-05-14T12:02:02.830Z,53.64
2023-05-14T12:04:32.240Z,58.14
2023-05-14T12:07:08.259Z,56.72
2023-05-14T12:09:39.770Z,65.95
2023-05-14T12:12:13.825Z,62.43
2023-05-14T12:14:45.205Z,63.32
2023-05-14T12:17:16.128Z,60.65
2023-05-14T12:19:47.296Z,65.06
2023-05-14T12:22:18.473Z,62.06
2023-05-14T12:25:00.899Z,57.31
2023-05-14T12:27:31.499Z,57.08
2023-05-14T12:30:16.791Z,53.78
2023-05-14T12:32:52.789Z,58.85
2023-05-14T12:35:23.400Z,64.78
2023-05-14T12:37:52.692Z,62.28
2023-05-14T12:40:22.024Z,69.58
2023-05-14T12:42:53.286Z,65.16
2023-05-14T12:45:23.780Z,61.08
2023-05-14T12:47:52.965Z,60.46
2023-05-14T12:50:22.458Z,65.96
2023-05-14T12:52:51.822Z,68.84
2023-05-14T12:55:20.949Z,71.41
2023-05-14T12:57:51.450Z,100.00
2023-05-14T13:00:20.965Z,100.00
2023-05-14T13:02:50.132Z,100.00
2023-05-14T13:05:19.296Z,100.00
2023-05-14T13:07:48.397Z,100.00
2023-05-14T13:10:18.459Z,100.00
2023-05-14T13:12:47.682Z,86.77
2023-05-14T13:15:18.165Z,92.75
2023-05-14T13:17:47.343Z,100.00
2023-05-14T13:20:17.812Z,100.00
2023-05-14T13:22:46.999Z,92.67
2023-05-14T13:25:16.164Z,93.80
2023-05-14T13:27:45.257Z,90.31
2023-05-14T13:30:14.867Z,100.00
2023-05-14T13:32:45.295Z,100.00
2023-05-14T13:35:14.844Z,85.47
2023-05-14T13:37:44.941Z,97.36
2023-05-14T13:40:14.580Z,90.52
2023-05-14T13:42:43.679Z,77.96
2023-05-14T13:45:13.524Z,87.35
2023-05-14T13:47:44.271Z,82.50
2023-05-14T13:50:14.049Z,88.11
2023-05-14T13:52:43.250Z,77.20
2023-05-14T13:55:12.294Z,84.49
2023-05-14T13:57:43.089Z,86.85
2023-05-14T14:00:13.383Z,90.20
2023-05-14T14:02:44.029Z,91.42
2023-05-14T14:05:13.152Z,99.51
2023-05-14T14:07:42.649Z,87.72
2023-05-14T14:10:13.709Z,91.25
2023-05-14T14:12:43.345Z,90.32
2023-05-14T14:15:13.862Z,79.27
2023-05-14T14:17:44.365Z,85.63
2023-05-14T14:20:14.066Z,77.19
2023-05-14T14:22:44.808Z,76.60
2023-05-14T14:25:13.917Z,73.14
2023-05-14T14:27:42.981Z,62.25
2023-05-14T14:30:15.727Z,60.82
2023-05-14T14:32:46.816Z,58.83
2023-05-14T14:35:18.154Z,61.88
2023-05-14T14:37:50.714Z,54.19
2023-05-14T14:40:20.211Z,59.27
2023-05-14T14:42:49.273Z,60.88
2023-05-14T14:45:18.327Z,71.60
2023-05-14T14:47:50.163Z,72.33
2023-05-14T14:50:19.443Z,78.60
2023-05-14T14:52:48.514Z,82.79
2023-05-14T14:55:17.627Z,76.88
2023-05-14T14:57:46.810Z,77.75
2023-05-14T15:00:17.344Z,73.89
2023-05-14T15:02:47.951Z,74.40
2023-05-14T15:05:17.339Z,58.43
2023-05-14T15:07:46.445Z,58.05
2023-05-14T15:10:15.560Z,59.63
2023-05-14T15:12:45.120Z,74.98
2023-05-14T15:15:14.235Z,63.44
2023-05-14T15:17:43.443Z,58.56
2023-05-14T15:20:14.984Z,59.05
2023-05-14T15:22:44.653Z,53.88
2023-05-14T15:25:13.792Z,51.85
2023-05-14T15:27:42.916Z,48.12
2023-05-14T15:30:13.478Z,58.92
2023-05-14T15:32:42.911Z,63.48
2023-05-14T15:35:13.384Z,64.78
2023-05-14T15:37:45.176Z,70.47
2023-05-14T15:40:14.719Z,80.35
2023-05-14T15:42:44.568Z,81.39
2023-05-14T15:45:14.611Z,72.21
2023-05-14T15:47:44.907Z,64.23
2023-05-14T15:50:15.474Z,65.37
2023-05-14T15:52:44.678Z,62.51
2023-05-14T15:55:13.764Z,58.60
2023-05-14T15:57:42.851Z,60.65
2023-05-14T16:00:13.027Z,61.80
2023-05-14T16:02:42.461Z,55.95
2023-05-14T16:05:11.934Z,69.48
2023-05-14T16:07:42.760Z,61.78
2023-05-14T16:10:12.411Z,62.42
2023-05-14T16:12:41.586Z,64.26
2023-05-14T16:15:11.642Z,62.43
2023-05-14T16:17:40.856Z,60.45
2023-05-14T16:20:11.027Z,62.25
2023-05-14T16:22:41.586Z,59.97
2023-05-14T16:25:10.853Z,57.71
2023-05-14T16:27:40.146Z,56.86
2023-05-14T16:30:10.139Z,58.16
2023-05-14T16:32:39.271Z,56.53
2023-05-14T16:35:08.858Z,61.25
2023-05-14T16:37:38.060Z,61.30
2023-05-14T16:40:11.620Z,68.21
2023-05-14T16:42:41.527Z,73.28
2023-05-14T16:45:13.738Z,76.65
2023-05-14T16:47:42.852Z,76.74
2023-05-14T16:50:12.322Z,77.89
2023-05-14T16:52:41.484Z,79.71
2023-05-14T16:55:12.196Z,79.09
2023-05-14T16:57:41.347Z,77.20
2023-05-14T17:00:12.020Z,78.10
2023-05-14T17:02:41.174Z,79.17
2023-05-14T17:05:10.965Z,83.05
2023-05-14T17:07:40.437Z,76.48
2023-05-14T17:10:11.779Z,77.08
2023-05-14T17:12:40.853Z,77.13
2023-05-14T17:15:10.905Z,78.74
2023-05-14T17:17:40.123Z,79.56
2023-05-14T17:20:10.225Z,81.08
2023-05-14T17:22:39.409Z,75.74
2023-05-14T17:25:09.960Z,75.23
2023-05-14T17:27:40.440Z,76.90
2023-05-14T17:30:10.560Z,77.45
2023-05-14T17:32:39.740Z,78.29
2023-05-14T17:35:10.211Z,77.98
2023-05-14T17:37:39.375Z,79.78
2023-05-14T17:40:09.596Z,80.40
2023-05-14T17:42:40.086Z,78.99
2023-05-14T17:45:10.432Z,81.55
2023-05-14T17:47:39.575Z,81.72
2023-05-14T17:50:09.781Z,82.04
2023-05-14T17:52:38.854Z,82.63
2023-05-14T17:55:09.351Z,83.80
2023-05-14T17:57:39.946Z,87.18
2023-05-14T18:00:10.865Z,90.35
2023-05-14T18:02:40.520Z,92.51
2023-05-14T18:05:10.260Z,91.86
2023-05-14T18:07:39.660Z,94.41
2023-05-14T18:10:09.571Z,98.83
2023-05-14T18:12:40.314Z,100.00
2023-05-14T18:15:10.308Z,94.46
2023-05-14T18:17:39.471Z,96.95
2023-05-14T18:20:10.086Z,95.27
2023-05-14T18:22:39.307Z,98.86
2023-05-14T18:25:09.690Z,100.00
2023-05-14T18:27:44.262Z,100.00
2023-05-14T18:30:15.047Z,100.00
2023-05-14T18:32:45.460Z,100.00
2023-05-14T18:35:15.513Z,100.00
2023-05-14T18:37:44.757Z,100.00
2023-05-14T18:40:16.341Z,100.00
2023-05-14T18:42:49.030Z,100.00
2023-05-14T18:45:18.533Z,100.00
2023-05-14T18:47:47.945Z,100.00
2023-05-14T18:50:17.193Z,100.00
2023-05-14T18:52:46.376Z,100.00
2023-05-14T18:55:15.614Z,100.00
2023-05-14T18:57:44.759Z,100.00
2023-05-14T19:00:17.135Z,100.00
2023-05-14T19:02:46.438Z,100.00
2023-05-14T19:05:15.793Z,100.00
2023-05-14T19:07:47.897Z,100.00
2023-05-14T19:10:17.173Z,100.00
2023-05-14T19:12:47.120Z,100.00
2023-05-14T19:15:18.010Z,100.00
2023-05-14T19:17:47.616Z,100.00
2023-05-14T19:20:16.738Z,100.00
2023-05-14T19:22:45.896Z,100.00
2023-05-14T19:25:14.964Z,100.00
2023-05-14T19:27:44.804Z,100.00
2023-05-14T19:30:14.879Z,100.00
2023-05-14T19:32:45.391Z,100.00
2023-05-14T19:35:14.880Z,100.00
2023-05-14T19:37:43.974Z,100.00
2023-05-14T19:40:13.586Z,100.00
2023-05-14T19:42:42.674Z,100.00
2023-05-14T19:45:12.493Z,100.00
2023-05-14T19:47:42.724Z,100.00
2023-05-14T19:50:13.609Z,100.00
2023-05-14T19:52:42.773Z,100.00
2023-05-14T19:55:11.843Z,100.00
2023-05-14T19:57:41.043Z,100.00
2023-05-14T20:00:11.837Z,100.00
2023-05-14T20:02:41.955Z,100.00
2023-05-14T20:05:12.695Z,100.00
2023-05-14T20:07:42.452Z,100.00
2023-05-14T20:10:12.008Z,100.00
2023-05-14T20:12:41.285Z,100.00
2023-05-14T20:15:11.277Z,100.00
2023-05-14T20:17:40.597Z,100.00
2023-05-14T20:20:11.796Z,100.00
2023-05-14T20:22:43.958Z,100.00
2023-05-14T20:25:13.609Z,100.00
2023-05-14T20:27:42.694Z,100.00
2023-05-14T20:30:12.196Z,100.00
2023-05-14T20:32:41.314Z,100.00
2023-05-14T20:35:10.702Z,100.00
2023-05-14T20:37:41.333Z,100.00
2023-05-14T20:40:12.760Z,100.00
2023-05-14T20:42:41.929Z,100.00
2023-05-14T20:45:12.649Z,100.00
2023-05-14T20:47:42.202Z,100.00
2023-05-14T20:50:11.693Z,100.00
2023-05-14T20:52:42.337Z,100.00
2023-05-14T20:55:11.789Z,100.00
2023-05-14T20:57:40.953Z,100.00
2023-05-14T21:00:13.765Z,100.00
2023-05-14T21:02:43.030Z,100.00
2023-05-14T21:05:13.858Z,100.00
2023-05-14T21:07:44.310Z,100.00
2023-05-14T21:10:13.495Z,100.00
2023-05-14T21:12:43.489Z,100.00
2023-05-14T21:15:13.999Z,100.00
2023-05-14T21:17:43.232Z,100.00
2023-05-14T21:20:15.360Z,100.00
2023-05-14T21:22:45.817Z,100.00
2023-05-14T21:25:14.869Z,100.00
2023-05-14T21:27:44.248Z,100.00
2023-05-14T21:30:14.517Z,100.00
2023-05-14T21:32:43.726Z,100.00
2023-05-14T21:35:13.077Z,100.00
2023-05-14T21:37:42.296Z,100.00
2023-05-14T21:40:13.818Z,100.00
2023-05-14T21:42:42.944Z,100.00
2023-05-14T21:45:12.645Z,100.00
2023-05-14T21:47:41.815Z,100.00
2023-05-14T21:50:11.643Z,100.00
2023-05-14T21:52:41.069Z,100.00
2023-05-14T21:55:12.049Z,100.00
2023-05-14T21:57:41.466Z,100.00
2023-05-14T22:00:13.011Z,100.00
2023-05-14T22:02:44.248Z,100.00
2023-05-14T22:05:13.419Z,100.00
2023-05-14T22:07:42.731Z,100.00
2023-05-14T22:10:15.155Z,100.00
2023-05-14T22:12:45.019Z,100.00
2023-05-14T22:15:14.497Z,100.00
2023-05-14T22:17:43.595Z,100.00
2023-05-14T22:20:12.924Z,100.00
2023-05-14T22:22:42.046Z,100.00
2023-05-14T22:25:12.954Z,100.00
2023-05-14T22:27:42.068Z,100.00
2023-05-14T22:30:11.954Z,100.00
2023-05-14T22:32:41.121Z,100.00
2023-05-14T22:35:11.175Z,100.00
2023-05-14T22:37:40.299Z,100.00
2023-05-14T22:40:10.330Z,100.00
2023-05-14T22:42:40.858Z,100.00
2023-05-14T22:45:10.973Z,100.00
2023-05-14T22:47:40.159Z,100.00
2023-05-14T22:50:11.514Z,100.00
2023-05-14T22:52:41.123Z,100.00
2023-05-14T22:55:10.683Z,100.00
2023-05-14T22:57:41.287Z,100.00
2023-05-14T23:00:11.485Z,100.00
2023-05-14T23:02:40.641Z,100.00
2023-05-14T23:05:10.539Z,100.00
2023-05-14T23:07:39.706Z,100.00
2023-05-14T23:10:09.646Z,100.00
2023-05-14T23:12:40.047Z,100.00
2023-05-14T23:15:09.658Z,100.00
2023-05-14T23:17:40.913Z,100.00
2023-05-14T23:20:12.577Z,100.00
2023-05-14T23:22:41.755Z,100.00
2023-05-14T23:25:11.395Z,100.00
2023-05-14T23:27:41.864Z,100.00
2023-05-14T23:30:12.017Z,100.00
2023-05-14T23:32:41.137Z,100.00
2023-05-14T23:35:10.526Z,100.00
2023-05-14T23:37:42.921Z,100.00
2023-05-14T23:40:12.535Z,100.00
2023-05-14T23:42:43.485Z,100.00
2023-05-14T23:45:13.440Z,100.00
2023-05-14T23:47:43.069Z,100.00
2023-05-14T23:50:12.296Z,100.00
2023-05-14T23:52:41.461Z,100.00
2023-05-14T23:55:11.111Z,100.00
2023-05-14T23:57:40.233Z,100.00
